sensor_id;sensor_type;location;lat;lon;timestamp;temperature;humidity
3940;DHT22;1984;48.312;9.244;2023-01-01T00:01:42;9.20;99.90
3940;DHT22;1984;48.312;9.244;2023-01-01T00:04:13;9.10;99.90
3940;DHT22;1984;48.312;9.244;2023-01-01T00:06:40;9.10;99.90
3940;DHT22;1984;48.312;9.244;2023-01-01T00:09:05;9.00;99.90
3940;DHT22;1984;48.312;9.244;2023-01-01T00:11:50;9.00;99.90
3940;DHT22;1984;48.312;9.244;2023-01-01T00:14:15;9.00;99.90
3940;DHT22;1984;48.312;9.244;2023-01-01T00:16:40;9.00;99.90
3940;DHT22;1984;48.312;9.244;2023-01-01T00:19:06;8.80;99.90
3940;DHT22;1984;48.312;9.244;2023-01-01T00:21:31;8.70;99.90
3940;DHT22;1984;48.312;9.244;2023-01-01T00:23:57;8.70;99.90
3940;DHT22;1984;48.312;9.244;2023-01-01T00:26:23;8.50;99.90
3940;DHT22;1984;48.312;9.244;2023-01-01T00:28:48;8.50;99.90
3940;DHT22;1984;48.312;9.244;2023-01-01T00:31:18;8.40;99.90
3940;DHT22;1984;48.312;9.244;2023-01-01T00:33:45;8.40;99.90
3940;DHT22;1984;48.312;9.244;2023-01-01T00:36:15;8.30;99.90
3940;DHT22;1984;48.312;9.244;2023-01-01T00:38:42;8.30;99.90
3940;DHT22;1984;48.312;9.244;2023-01-01T00:41:08;8.30;99.90
3940;DHT22;1984;48.312;9.244;2023-01-01T00:43:34;8.30;99.90
3940;DHT22;1984;48.312;9.244;2023-01-01T00:45:59;8.30;99.90
3940;DHT22;1984;48.312;9.244;2023-01-01T00:48:25;8.30;99.90
3940;DHT22;1984;48.312;9.244;2023-01-01T00:50:51;8.30;99.90
3940;DHT22;1984;48.312;9.244;2023-01-01T00:53:18;8.30;99.90
3940;DHT22;1984;48.312;9.244;2023-01-01T00:55:46;8.30;99.90
3940;DHT22;1984;48.312;9.244;2023-01-01T00:58:11;8.20;99.90
3940;DHT22;1984;48.312;9.244;2023-01-01T01:00:37;8.20;99.90
3940;DHT22;1984;48.312;9.244;2023-01-01T01:03:03;8.10;99.90
3940;DHT22;1984;48.312;9.244;2023-01-01T01:05:30;8.10;99.90
3940;DHT22;1984;48.312;9.244;2023-01-01T01:07:57;8.00;99.90
3940;DHT22;1984;48.312;9.244;2023-01-01T01:10:22;8.10;99.90
3940;DHT22;1984;48.312;9.244;2023-01-01T01:12:53;8.10;99.90
3940;DHT22;1984;48.312;9.244;2023-01-01T01:15:19;8.00;99.90
3940;DHT22;1984;48.312;9.244;2023-01-01T01:17:44;8.00;99.90
3940;DHT22;1984;48.312;9.244;2023-01-01T01:20:11;8.00;99.90
3940;DHT22;1984;48.312;9.244;2023-01-01T01:22:37;8.00;99.90
3940;DHT22;1984;48.312;9.244;2023-01-01T01:25:04;8.00;99.90
3940;DHT22;1984;48.312;9.244;2023-01-01T01:27:30;8.00;99.90
3940;DHT22;1984;48.312;9.244;2023-01-01T01:29:55;8.00;99.90
3940;DHT22;1984;48.312;9.244;2023-01-01T01:32:21;8.00;99.90
3940;DHT22;1984;48.312;9.244;2023-01-01T01:34:47;8.00;99.90
3940;DHT22;1984;48.312;9.244;2023-01-01T01:37:12;8.00;99.90
3940;DHT22;1984;48.312;9.244;2023-01-01T01:39:38;8.00;99.90
3940;DHT22;1984;48.312;9.244;2023-01-01T01:42:03;7.90;99.90
3940;DHT22;1984;48.312;9.244;2023-01-01T01:47:27;7.80;99.90
3940;DHT22;1984;48.312;9.244;2023-01-01T01:50:13;7.80;99.90
3940;DHT22;1984;48.312;9.244;2023-01-01T01:52:43;7.80;99.90
3940;DHT22;1984;48.312;9.244;2023-01-01T01:55:12;7.90;99.90
3940;DHT22;1984;48.312;9.244;2023-01-01T01:57:39;7.80;99.90
3940;DHT22;1984;48.312;9.244;2023-01-01T02:00:06;7.70;99.90
3940;DHT22;1984;48.312;9.244;2023-01-01T02:02:47;7.70;99.90
3940;DHT22;1984;48.312;9.244;2023-01-01T02:05:16;7.70;99.90
3940;DHT22;1984;48.312;9.244;2023-01-01T02:07:42;7.80;99.90
3940;DHT22;1984;48.312;9.244;2023-01-01T02:10:09;7.80;99.90
3940;DHT22;1984;48.312;9.244;2023-01-01T02:12:34;7.80;99.90
3940;DHT22;1984;48.312;9.244;2023-01-01T02:15:00;7.80;99.90
3940;DHT22;1984;48.312;9.244;2023-01-01T02:17:43;7.90;99.90
3940;DHT22;1984;48.312;9.244;2023-01-01T02:23:01;7.90;99.90
3940;DHT22;1984;48.312;9.244;2023-01-01T02:31:25;7.90;99.90
3940;DHT22;1984;48.312;9.244;2023-01-01T02:33:54;7.90;99.90
3940;DHT22;1984;48.312;9.244;2023-01-01T02:36:22;7.90;99.90
3940;DHT22;1984;48.312;9.244;2023-01-01T02:38:52;8.00;99.90
3940;DHT22;1984;48.312;9.244;2023-01-01T02:41:20;8.00;99.90
3940;DHT22;1984;48.312;9.244;2023-01-01T02:43:46;8.00;99.90
3940;DHT22;1984;48.312;9.244;2023-01-01T02:46:12;8.00;99.90
3940;DHT22;1984;48.312;9.244;2023-01-01T02:51:57;8.00;99.90
3940;DHT22;1984;48.312;9.244;2023-01-01T02:56:39;8.00;99.90
3940;DHT22;1984;48.312;9.244;2023-01-01T03:02:12;7.80;99.90
3940;DHT22;1984;48.312;9.244;2023-01-01T03:10:23;7.70;99.90
3940;DHT22;1984;48.312;9.244;2023-01-01T03:16:08;7.60;99.90
3940;DHT22;1984;48.312;9.244;2023-01-01T03:18:43;7.60;99.90
3940;DHT22;1984;48.312;9.244;2023-01-01T03:21:13;7.60;99.90
3940;DHT22;1984;48.312;9.244;2023-01-01T03:23:45;7.50;99.90
3940;DHT22;1984;48.312;9.244;2023-01-01T03:26:12;7.50;99.90
3940;DHT22;1984;48.312;9.244;2023-01-01T03:28:53;7.50;99.90
3940;DHT22;1984;48.312;9.244;2023-01-01T03:31:21;7.50;99.90
3940;DHT22;1984;48.312;9.244;2023-01-01T03:34:05;7.60;99.90
3940;DHT22;1984;48.312;9.244;2023-01-01T03:36:35;7.60;99.90
3940;DHT22;1984;48.312;9.244;2023-01-01T03:39:20;7.60;99.90
3940;DHT22;1984;48.312;9.244;2023-01-01T03:42:15;7.60;99.90
3940;DHT22;1984;48.312;9.244;2023-01-01T03:44:51;7.60;99.90
3940;DHT22;1984;48.312;9.244;2023-01-01T03:47:18;7.70;99.90
3940;DHT22;1984;48.312;9.244;2023-01-01T03:49:45;7.80;99.90
3940;DHT22;1984;48.312;9.244;2023-01-01T03:52:22;7.80;99.90
3940;DHT22;1984;48.312;9.244;2023-01-01T03:57:29;7.80;99.90
3940;DHT22;1984;48.312;9.244;2023-01-01T04:00:16;7.90;99.90
3940;DHT22;1984;48.312;9.244;2023-01-01T04:03:01;7.90;99.90
3940;DHT22;1984;48.312;9.244;2023-01-01T04:05:28;7.90;99.90
3940;DHT22;1984;48.312;9.244;2023-01-01T04:07:54;7.90;99.90
3940;DHT22;1984;48.312;9.244;2023-01-01T04:10:21;7.90;99.90
3940;DHT22;1984;48.312;9.244;2023-01-01T04:12:52;7.90;99.90
3940;DHT22;1984;48.312;9.244;2023-01-01T04:15:22;7.90;99.90
3940;DHT22;1984;48.312;9.244;2023-01-01T04:17:48;7.80;99.90
3940;DHT22;1984;48.312;9.244;2023-01-01T04:20:14;7.80;99.90
3940;DHT22;1984;48.312;9.244;2023-01-01T04:22:40;7.80;99.90
3940;DHT22;1984;48.312;9.244;2023-01-01T04:25:07;7.80;99.90
3940;DHT22;1984;48.312;9.244;2023-01-01T04:27:32;7.80;99.90
3940;DHT22;1984;48.312;9.244;2023-01-01T04:29:58;7.80;99.90
3940;DHT22;1984;48.312;9.244;2023-01-01T04:32:24;7.80;99.90
3940;DHT22;1984;48.312;9.244;2023-01-01T04:34:49;7.70;99.90
3940;DHT22;1984;48.312;9.244;2023-01-01T04:37:15;7.70;99.90
3940;DHT22;1984;48.312;9.244;2023-01-01T04:39:40;7.70;99.90
3940;DHT22;1984;48.312;9.244;2023-01-01T04:42:06;7.70;99.90
3940;DHT22;1984;48.312;9.244;2023-01-01T04:44:31;7.60;99.90
3940;DHT22;1984;48.312;9.244;2023-01-01T04:46:57;7.60;99.90
3940;DHT22;1984;48.312;9.244;2023-01-01T04:49:22;7.60;99.90
3940;DHT22;1984;48.312;9.244;2023-01-01T04:51:48;7.60;99.90
3940;DHT22;1984;48.312;9.244;2023-01-01T04:54:13;7.60;99.90
3940;DHT22;1984;48.312;9.244;2023-01-01T04:56:39;7.70;99.90
3940;DHT22;1984;48.312;9.244;2023-01-01T04:59:05;7.70;99.90
3940;DHT22;1984;48.312;9.244;2023-01-01T05:01:30;7.70;99.90
3940;DHT22;1984;48.312;9.244;2023-01-01T05:03:57;7.70;99.90
3940;DHT22;1984;48.312;9.244;2023-01-01T05:06:23;7.70;99.90
3940;DHT22;1984;48.312;9.244;2023-01-01T05:08:51;7.70;99.90
3940;DHT22;1984;48.312;9.244;2023-01-01T05:11:20;7.70;99.90
3940;DHT22;1984;48.312;9.244;2023-01-01T05:13:48;7.60;99.90
3940;DHT22;1984;48.312;9.244;2023-01-01T05:16:17;7.60;99.90
3940;DHT22;1984;48.312;9.244;2023-01-01T05:18:43;7.50;99.90
3940;DHT22;1984;48.312;9.244;2023-01-01T05:21:14;7.50;99.90
3940;DHT22;1984;48.312;9.244;2023-01-01T05:23:41;7.40;99.90
3940;DHT22;1984;48.312;9.244;2023-01-01T05:26:17;7.30;99.90
3940;DHT22;1984;48.312;9.244;2023-01-01T05:28:44;7.30;99.90
3940;DHT22;1984;48.312;9.244;2023-01-01T05:31:15;7.20;99.90
3940;DHT22;1984;48.312;9.244;2023-01-01T05:33:42;7.20;99.90
3940;DHT22;1984;48.312;9.244;2023-01-01T05:36:13;7.20;99.90
3940;DHT22;1984;48.312;9.244;2023-01-01T05:38:39;7.20;99.90
3940;DHT22;1984;48.312;9.244;2023-01-01T05:41:05;7.10;99.90
3940;DHT22;1984;48.312;9.244;2023-01-01T05:43:32;7.10;99.90
3940;DHT22;1984;48.312;9.244;2023-01-01T05:46:02;7.10;99.90
3940;DHT22;1984;48.312;9.244;2023-01-01T05:48:28;7.10;99.90
3940;DHT22;1984;48.312;9.244;2023-01-01T05:51:00;7.10;99.90
3940;DHT22;1984;48.312;9.244;2023-01-01T05:53:25;7.00;99.90
3940;DHT22;1984;48.312;9.244;2023-01-01T05:55:52;7.00;99.90
3940;DHT22;1984;48.312;9.244;2023-01-01T05:58:18;7.10;99.90
3940;DHT22;1984;48.312;9.244;2023-01-01T06:00:43;7.10;99.90
3940;DHT22;1984;48.312;9.244;2023-01-01T06:03:09;7.10;99.90
3940;DHT22;1984;48.312;9.244;2023-01-01T06:05:34;7.10;99.90
3940;DHT22;1984;48.312;9.244;2023-01-01T06:08:00;7.20;99.90
3940;DHT22;1984;48.312;9.244;2023-01-01T06:10:25;7.20;99.90
3940;DHT22;1984;48.312;9.244;2023-01-01T06:12:51;7.20;99.90
3940;DHT22;1984;48.312;9.244;2023-01-01T06:15:20;7.20;99.90
3940;DHT22;1984;48.312;9.244;2023-01-01T06:17:45;7.20;99.90
3940;DHT22;1984;48.312;9.244;2023-01-01T06:20:11;7.20;99.90
3940;DHT22;1984;48.312;9.244;2023-01-01T06:22:36;7.20;99.90
3940;DHT22;1984;48.312;9.244;2023-01-01T06:25:02;7.20;99.90
3940;DHT22;1984;48.312;9.244;2023-01-01T06:27:28;7.20;99.90
3940;DHT22;1984;48.312;9.244;2023-01-01T06:29:53;7.20;99.90
3940;DHT22;1984;48.312;9.244;2023-01-01T06:32:19;7.20;99.90
3940;DHT22;1984;48.312;9.244;2023-01-01T06:34:44;7.20;99.90
3940;DHT22;1984;48.312;9.244;2023-01-01T06:37:10;7.30;99.90
3940;DHT22;1984;48.312;9.244;2023-01-01T06:39:35;7.30;99.90
3940;DHT22;1984;48.312;9.244;2023-01-01T06:42:01;7.30;99.90
3940;DHT22;1984;48.312;9.244;2023-01-01T06:44:26;7.40;99.90
3940;DHT22;1984;48.312;9.244;2023-01-01T06:46:52;7.40;99.90
3940;DHT22;1984;48.312;9.244;2023-01-01T06:49:17;7.40;99.90
3940;DHT22;1984;48.312;9.244;2023-01-01T06:51:43;7.40;99.90
3940;DHT22;1984;48.312;9.244;2023-01-01T06:54:09;7.40;99.90
3940;DHT22;1984;48.312;9.244;2023-01-01T06:56:35;7.40;99.90
3940;DHT22;1984;48.312;9.244;2023-01-01T06:59:01;7.40;99.90
3940;DHT22;1984;48.312;9.244;2023-01-01T07:01:29;7.40;99.90
3940;DHT22;1984;48.312;9.244;2023-01-01T07:04:01;7.50;99.90
3940;DHT22;1984;48.312;9.244;2023-01-01T07:06:29;7.50;99.90
3940;DHT22;1984;48.312;9.244;2023-01-01T07:08:55;7.50;99.90
3940;DHT22;1984;48.312;9.244;2023-01-01T07:11:20;7.50;99.90
3940;DHT22;1984;48.312;9.244;2023-01-01T07:13:46;7.60;99.90
3940;DHT22;1984;48.312;9.244;2023-01-01T07:16:12;7.60;99.90
3940;DHT22;1984;48.312;9.244;2023-01-01T07:18:38;7.70;99.90
3940;DHT22;1984;48.312;9.244;2023-01-01T07:21:05;7.70;99.90
3940;DHT22;1984;48.312;9.244;2023-01-01T07:23:33;7.80;99.90
3940;DHT22;1984;48.312;9.244;2023-01-01T07:25:59;7.90;99.90
3940;DHT22;1984;48.312;9.244;2023-01-01T07:28:26;7.90;99.90
3940;DHT22;1984;48.312;9.244;2023-01-01T07:30:52;8.10;99.90
3940;DHT22;1984;48.312;9.244;2023-01-01T07:33:22;8.20;99.90
3940;DHT22;1984;48.312;9.244;2023-01-01T07:35:48;8.30;99.90
3940;DHT22;1984;48.312;9.244;2023-01-01T07:38:14;8.40;99.90
3940;DHT22;1984;48.312;9.244;2023-01-01T07:40:40;8.50;99.90
3940;DHT22;1984;48.312;9.244;2023-01-01T07:43:06;8.50;99.90
3940;DHT22;1984;48.312;9.244;2023-01-01T07:45:33;8.60;99.90
3940;DHT22;1984;48.312;9.244;2023-01-01T07:47:59;8.70;99.90
3940;DHT22;1984;48.312;9.244;2023-01-01T07:50:27;8.80;99.90
3940;DHT22;1984;48.312;9.244;2023-01-01T07:52:53;8.90;99.90
3940;DHT22;1984;48.312;9.244;2023-01-01T07:55:19;9.30;99.90
3940;DHT22;1984;48.312;9.244;2023-01-01T07:57:47;10.10;99.90
3940;DHT22;1984;48.312;9.244;2023-01-01T08:00:15;10.70;99.90
3940;DHT22;1984;48.312;9.244;2023-01-01T08:02:41;11.00;99.90
3940;DHT22;1984;48.312;9.244;2023-01-01T08:05:07;11.30;99.90
3940;DHT22;1984;48.312;9.244;2023-01-01T08:07:33;11.80;99.90
3940;DHT22;1984;48.312;9.244;2023-01-01T08:09:58;12.10;99.90
3940;DHT22;1984;48.312;9.244;2023-01-01T08:12:24;12.60;99.90
3940;DHT22;1984;48.312;9.244;2023-01-01T08:14:50;12.80;99.90
3940;DHT22;1984;48.312;9.244;2023-01-01T08:17:15;13.20;99.90
3940;DHT22;1984;48.312;9.244;2023-01-01T08:19:41;13.70;99.90
3940;DHT22;1984;48.312;9.244;2023-01-01T08:22:06;13.90;99.90
3940;DHT22;1984;48.312;9.244;2023-01-01T08:24:32;13.80;99.90
3940;DHT22;1984;48.312;9.244;2023-01-01T08:26:57;13.90;99.90
3940;DHT22;1984;48.312;9.244;2023-01-01T08:29:23;14.10;99.90
3940;DHT22;1984;48.312;9.244;2023-01-01T08:31:49;14.50;99.90
3940;DHT22;1984;48.312;9.244;2023-01-01T08:34:14;14.80;99.90
3940;DHT22;1984;48.312;9.244;2023-01-01T08:36:40;15.40;99.90
3940;DHT22;1984;48.312;9.244;2023-01-01T08:39:06;15.90;99.90
3940;DHT22;1984;48.312;9.244;2023-01-01T08:41:32;16.20;99.90
3940;DHT22;1984;48.312;9.244;2023-01-01T08:43:57;16.30;99.90
3940;DHT22;1984;48.312;9.244;2023-01-01T08:46:23;16.20;99.90
3940;DHT22;1984;48.312;9.244;2023-01-01T08:48:48;15.80;99.90
3940;DHT22;1984;48.312;9.244;2023-01-01T08:51:14;15.50;99.90
3940;DHT22;1984;48.312;9.244;2023-01-01T08:53:40;15.10;99.90
3940;DHT22;1984;48.312;9.244;2023-01-01T08:56:10;14.60;99.90
3940;DHT22;1984;48.312;9.244;2023-01-01T08:58:37;14.00;99.90
3940;DHT22;1984;48.312;9.244;2023-01-01T09:01:03;13.50;99.90
3940;DHT22;1984;48.312;9.244;2023-01-01T09:03:29;13.10;99.90
3940;DHT22;1984;48.312;9.244;2023-01-01T09:05:54;12.90;99.90
3940;DHT22;1984;48.312;9.244;2023-01-01T09:08:20;13.50;99.90
3940;DHT22;1984;48.312;9.244;2023-01-01T09:10:47;14.20;99.90
3940;DHT22;1984;48.312;9.244;2023-01-01T09:13:14;15.10;99.90
3940;DHT22;1984;48.312;9.244;2023-01-01T09:15:40;16.00;99.90
3940;DHT22;1984;48.312;9.244;2023-01-01T09:18:07;16.80;99.90
3940;DHT22;1984;48.312;9.244;2023-01-01T09:20:33;17.50;99.90
3940;DHT22;1984;48.312;9.244;2023-01-01T09:22:59;18.30;99.90
3940;DHT22;1984;48.312;9.244;2023-01-01T09:25:24;18.90;99.90
3940;DHT22;1984;48.312;9.244;2023-01-01T09:27:56;19.10;99.90
3940;DHT22;1984;48.312;9.244;2023-01-01T09:30:22;18.90;99.90
3940;DHT22;1984;48.312;9.244;2023-01-01T09:32:48;19.00;99.90
3940;DHT22;1984;48.312;9.244;2023-01-01T09:35:13;19.30;99.90
3940;DHT22;1984;48.312;9.244;2023-01-01T09:37:39;19.00;99.90
3940;DHT22;1984;48.312;9.244;2023-01-01T09:40:05;19.10;99.90
3940;DHT22;1984;48.312;9.244;2023-01-01T09:42:42;19.40;99.90
3940;DHT22;1984;48.312;9.244;2023-01-01T09:45:25;19.20;99.90
3940;DHT22;1984;48.312;9.244;2023-01-01T09:48:04;18.70;99.90
3940;DHT22;1984;48.312;9.244;2023-01-01T09:50:42;17.90;99.90
3940;DHT22;1984;48.312;9.244;2023-01-01T09:53:12;18.00;99.90
3940;DHT22;1984;48.312;9.244;2023-01-01T09:55:59;18.00;99.90
3940;DHT22;1984;48.312;9.244;2023-01-01T09:58:36;17.80;99.90
3940;DHT22;1984;48.312;9.244;2023-01-01T10:06:49;17.60;99.90
3940;DHT22;1984;48.312;9.244;2023-01-01T10:09:26;17.80;99.90
3940;DHT22;1984;48.312;9.244;2023-01-01T10:14:31;17.40;99.90
3940;DHT22;1984;48.312;9.244;2023-01-01T10:17:07;16.90;99.90
3940;DHT22;1984;48.312;9.244;2023-01-01T10:19:40;16.30;99.90
3940;DHT22;1984;48.312;9.244;2023-01-01T10:22:43;15.90;99.90
3940;DHT22;1984;48.312;9.244;2023-01-01T10:25:20;16.40;99.90
3940;DHT22;1984;48.312;9.244;2023-01-01T10:28:11;16.40;99.90
3940;DHT22;1984;48.312;9.244;2023-01-01T10:30:40;16.80;99.90
3940;DHT22;1984;48.312;9.244;2023-01-01T10:33:12;17.30;99.90
3940;DHT22;1984;48.312;9.244;2023-01-01T10:38:05;18.80;99.90
3940;DHT22;1984;48.312;9.244;2023-01-01T10:40:31;19.50;99.90
3940;DHT22;1984;48.312;9.244;2023-01-01T10:42:59;19.80;99.90
3940;DHT22;1984;48.312;9.244;2023-01-01T10:45:33;19.70;99.90
3940;DHT22;1984;48.312;9.244;2023-01-01T10:48:24;19.70;99.90
3940;DHT22;1984;48.312;9.244;2023-01-01T10:50:56;19.90;99.90
3940;DHT22;1984;48.312;9.244;2023-01-01T10:53:39;20.10;99.90
3940;DHT22;1984;48.312;9.244;2023-01-01T11:06:39;18.90;99.90
3940;DHT22;1984;48.312;9.244;2023-01-01T11:09:23;18.60;99.90
3940;DHT22;1984;48.312;9.244;2023-01-01T11:12:01;18.40;99.90
3940;DHT22;1984;48.312;9.244;2023-01-01T11:14:37;18.50;99.90
3940;DHT22;1984;48.312;9.244;2023-01-01T11:17:03;18.40;99.90
3940;DHT22;1984;48.312;9.244;2023-01-01T11:19:32;18.50;99.90
3940;DHT22;1984;48.312;9.244;2023-01-01T11:21:59;18.50;99.90
3940;DHT22;1984;48.312;9.244;2023-01-01T11:24:27;18.60;99.90
3940;DHT22;1984;48.312;9.244;2023-01-01T11:27:10;18.50;99.90
3940;DHT22;1984;48.312;9.244;2023-01-01T11:29:36;18.50;99.90
3940;DHT22;1984;48.312;9.244;2023-01-01T11:32:06;18.60;99.90
3940;DHT22;1984;48.312;9.244;2023-01-01T11:34:38;18.60;99.90
3940;DHT22;1984;48.312;9.244;2023-01-01T11:37:30;18.50;99.90
3940;DHT22;1984;48.312;9.244;2023-01-01T11:39:59;18.30;99.90
3940;DHT22;1984;48.312;9.244;2023-01-01T11:42:30;18.10;99.90
3940;DHT22;1984;48.312;9.244;2023-01-01T11:44:59;17.80;99.90
3940;DHT22;1984;48.312;9.244;2023-01-01T11:52:40;16.90;99.90
3940;DHT22;1984;48.312;9.244;2023-01-01T11:55:39;16.80;99.90
3940;DHT22;1984;48.312;9.244;2023-01-01T11:58:25;16.80;99.90
3940;DHT22;1984;48.312;9.244;2023-01-01T12:00:59;16.70;99.90
3940;DHT22;1984;48.312;9.244;2023-01-01T12:03:34;16.60;99.90
3940;DHT22;1984;48.312;9.244;2023-01-01T12:06:15;16.50;99.90
3940;DHT22;1984;48.312;9.244;2023-01-01T12:09:02;16.50;99.90
3940;DHT22;1984;48.312;9.244;2023-01-01T12:11:48;16.50;99.90
3940;DHT22;1984;48.312;9.244;2023-01-01T12:14:37;16.40;99.90
3940;DHT22;1984;48.312;9.244;2023-01-01T12:17:43;16.40;99.90
3940;DHT22;1984;48.312;9.244;2023-01-01T12:20:18;16.40;99.90
3940;DHT22;1984;48.312;9.244;2023-01-01T12:22:47;16.30;99.90
3940;DHT22;1984;48.312;9.244;2023-01-01T12:25:16;16.30;99.90
3940;DHT22;1984;48.312;9.244;2023-01-01T12:28:04;16.30;99.90
3940;DHT22;1984;48.312;9.244;2023-01-01T12:31:07;16.30;99.90
3940;DHT22;1984;48.312;9.244;2023-01-01T12:36:36;16.20;99.90
3940;DHT22;1984;48.312;9.244;2023-01-01T12:56:48;15.80;99.90
3940;DHT22;1984;48.312;9.244;2023-01-01T12:59:21;15.80;99.90
3940;DHT22;1984;48.312;9.244;2023-01-01T13:01:50;15.70;99.90
3940;DHT22;1984;48.312;9.244;2023-01-01T13:04:21;15.60;99.90
3940;DHT22;1984;48.312;9.244;2023-01-01T13:09:19;15.60;99.90
3940;DHT22;1984;48.312;9.244;2023-01-01T13:11:53;15.50;99.90
3940;DHT22;1984;48.312;9.244;2023-01-01T13:14:19;15.40;99.90
3940;DHT22;1984;48.312;9.244;2023-01-01T13:16:51;15.30;99.90
3940;DHT22;1984;48.312;9.244;2023-01-01T13:19:34;15.30;99.90
3940;DHT22;1984;48.312;9.244;2023-01-01T13:38:46;14.80;99.90
3940;DHT22;1984;48.312;9.244;2023-01-01T13:41:38;14.80;99.90
3940;DHT22;1984;48.312;9.244;2023-01-01T13:46:53;14.70;99.90
3940;DHT22;1984;48.312;9.244;2023-01-01T13:52:48;14.70;99.90
3940;DHT22;1984;48.312;9.244;2023-01-01T13:55:55;14.70;99.90
3940;DHT22;1984;48.312;9.244;2023-01-01T13:58:42;14.70;99.90
3940;DHT22;1984;48.312;9.244;2023-01-01T14:01:28;14.70;99.90
3940;DHT22;1984;48.312;9.244;2023-01-01T14:03:58;14.60;99.90
3940;DHT22;1984;48.312;9.244;2023-01-01T14:06:40;14.60;99.90
3940;DHT22;1984;48.312;9.244;2023-01-01T14:09:14;14.60;99.90
3940;DHT22;1984;48.312;9.244;2023-01-01T14:11:40;14.40;99.90
3940;DHT22;1984;48.312;9.244;2023-01-01T14:16:51;14.40;99.90
3940;DHT22;1984;48.312;9.244;2023-01-01T14:19:17;14.40;99.90
3940;DHT22;1984;48.312;9.244;2023-01-01T14:21:43;14.40;99.90
3940;DHT22;1984;48.312;9.244;2023-01-01T14:24:13;14.40;99.90
3940;DHT22;1984;48.312;9.244;2023-01-01T14:26:39;14.40;99.90
3940;DHT22;1984;48.312;9.244;2023-01-01T14:29:07;14.40;99.90
3940;DHT22;1984;48.312;9.244;2023-01-01T14:31:43;14.30;99.90
3940;DHT22;1984;48.312;9.244;2023-01-01T14:34:23;14.30;99.90
3940;DHT22;1984;48.312;9.244;2023-01-01T14:36:52;14.30;99.90
3940;DHT22;1984;48.312;9.244;2023-01-01T14:39:30;14.20;99.90
3940;DHT22;1984;48.312;9.244;2023-01-01T14:42:07;14.10;99.90
3940;DHT22;1984;48.312;9.244;2023-01-01T14:44:38;14.10;99.90
3940;DHT22;1984;48.312;9.244;2023-01-01T14:49:44;14.00;99.90
3940;DHT22;1984;48.312;9.244;2023-01-01T14:52:24;14.00;99.90
3940;DHT22;1984;48.312;9.244;2023-01-01T14:54:51;13.90;99.90
3940;DHT22;1984;48.312;9.244;2023-01-01T14:57:21;13.90;99.90
3940;DHT22;1984;48.312;9.244;2023-01-01T14:59:49;13.80;99.90
3940;DHT22;1984;48.312;9.244;2023-01-01T15:02:27;13.80;99.90
3940;DHT22;1984;48.312;9.244;2023-01-01T15:04:55;13.70;99.90
3940;DHT22;1984;48.312;9.244;2023-01-01T15:07:25;13.70;99.90
3940;DHT22;1984;48.312;9.244;2023-01-01T15:09:52;13.60;99.90
3940;DHT22;1984;48.312;9.244;2023-01-01T15:12:19;13.50;99.90
3940;DHT22;1984;48.312;9.244;2023-01-01T15:14:47;13.40;99.90
3940;DHT22;1984;48.312;9.244;2023-01-01T15:17:23;13.40;99.90
3940;DHT22;1984;48.312;9.244;2023-01-01T15:20:18;13.40;99.90
3940;DHT22;1984;48.312;9.244;2023-01-01T15:22:44;13.30;99.90
3940;DHT22;1984;48.312;9.244;2023-01-01T15:25:12;13.30;99.90
3940;DHT22;1984;48.312;9.244;2023-01-01T15:27:38;13.20;99.90
3940;DHT22;1984;48.312;9.244;2023-01-01T15:30:05;13.10;99.90
3940;DHT22;1984;48.312;9.244;2023-01-01T15:32:36;13.10;99.90
3940;DHT22;1984;48.312;9.244;2023-01-01T15:35:21;13.00;99.90
3940;DHT22;1984;48.312;9.244;2023-01-01T15:37:52;13.00;99.90
3940;DHT22;1984;48.312;9.244;2023-01-01T15:42:46;12.90;99.90
3940;DHT22;1984;48.312;9.244;2023-01-01T15:48:35;12.70;99.90
3940;DHT22;1984;48.312;9.244;2023-01-01T15:50:39;12.60;99.90
3940;DHT22;1984;48.312;9.244;2023-01-01T15:53:26;12.50;99.90
3940;DHT22;1984;48.312;9.244;2023-01-01T15:55:57;12.50;99.90
3940;DHT22;1984;48.312;9.244;2023-01-01T15:58:31;12.40;99.90
3940;DHT22;1984;48.312;9.244;2023-01-01T16:01:01;12.40;99.90
3940;DHT22;1984;48.312;9.244;2023-01-01T16:03:28;12.30;99.90
3940;DHT22;1984;48.312;9.244;2023-01-01T16:05:55;12.20;99.90
3940;DHT22;1984;48.312;9.244;2023-01-01T16:08:21;12.20;99.90
3940;DHT22;1984;48.312;9.244;2023-01-01T16:10:47;12.20;99.90
3940;DHT22;1984;48.312;9.244;2023-01-01T16:13:13;12.20;99.90
3940;DHT22;1984;48.312;9.244;2023-01-01T16:15:59;12.10;99.90
3940;DHT22;1984;48.312;9.244;2023-01-01T16:18:33;12.10;99.90
3940;DHT22;1984;48.312;9.244;2023-01-01T16:21:00;12.00;99.90
3940;DHT22;1984;48.312;9.244;2023-01-01T16:23:25;12.00;99.90
3940;DHT22;1984;48.312;9.244;2023-01-01T16:25:51;11.90;99.90
3940;DHT22;1984;48.312;9.244;2023-01-01T16:28:16;11.90;99.90
3940;DHT22;1984;48.312;9.244;2023-01-01T16:30:42;11.80;99.90
3940;DHT22;1984;48.312;9.244;2023-01-01T16:33:19;11.80;99.90
3940;DHT22;1984;48.312;9.244;2023-01-01T16:35:45;11.70;99.90
3940;DHT22;1984;48.312;9.244;2023-01-01T16:38:11;11.70;99.90
3940;DHT22;1984;48.312;9.244;2023-01-01T16:40:37;11.60;99.90
3940;DHT22;1984;48.312;9.244;2023-01-01T16:43:03;11.60;99.90
3940;DHT22;1984;48.312;9.244;2023-01-01T16:45:30;11.60;99.90
3940;DHT22;1984;48.312;9.244;2023-01-01T16:47:56;11.50;99.90
3940;DHT22;1984;48.312;9.244;2023-01-01T16:50:21;11.50;99.90
3940;DHT22;1984;48.312;9.244;2023-01-01T16:52:47;11.50;99.90
3940;DHT22;1984;48.312;9.244;2023-01-01T16:55:13;11.50;99.90
3940;DHT22;1984;48.312;9.244;2023-01-01T16:57:39;11.50;99.90
3940;DHT22;1984;48.312;9.244;2023-01-01T17:00:05;11.50;99.90
3940;DHT22;1984;48.312;9.244;2023-01-01T17:02:31;11.40;99.90
3940;DHT22;1984;48.312;9.244;2023-01-01T17:04:57;11.40;99.90
3940;DHT22;1984;48.312;9.244;2023-01-01T17:07:22;11.40;99.90
3940;DHT22;1984;48.312;9.244;2023-01-01T17:09:48;11.40;99.90
3940;DHT22;1984;48.312;9.244;2023-01-01T17:12:13;11.30;99.90
3940;DHT22;1984;48.312;9.244;2023-01-01T17:14:39;11.20;99.90
3940;DHT22;1984;48.312;9.244;2023-01-01T17:17:04;11.20;99.90
3940;DHT22;1984;48.312;9.244;2023-01-01T17:19:30;11.10;99.90
3940;DHT22;1984;48.312;9.244;2023-01-01T17:21:55;11.10;99.90
3940;DHT22;1984;48.312;9.244;2023-01-01T17:24:21;11.10;99.90
3940;DHT22;1984;48.312;9.244;2023-01-01T17:26:52;11.00;99.90
3940;DHT22;1984;48.312;9.244;2023-01-01T17:29:22;11.00;99.90
3940;DHT22;1984;48.312;9.244;2023-01-01T17:31:48;11.00;99.90
3940;DHT22;1984;48.312;9.244;2023-01-01T17:34:13;10.90;99.90
3940;DHT22;1984;48.312;9.244;2023-01-01T17:36:40;10.90;99.90
3940;DHT22;1984;48.312;9.244;2023-01-01T17:39:05;10.90;99.90
3940;DHT22;1984;48.312;9.244;2023-01-01T17:41:31;10.80;99.90
3940;DHT22;1984;48.312;9.244;2023-01-01T17:43:57;10.80;99.90
3940;DHT22;1984;48.312;9.244;2023-01-01T17:46:27;10.80;99.90
3940;DHT22;1984;48.312;9.244;2023-01-01T17:48:57;10.70;99.90
3940;DHT22;1984;48.312;9.244;2023-01-01T17:51:23;10.70;99.90
3940;DHT22;1984;48.312;9.244;2023-01-01T17:53:49;10.70;99.90
3940;DHT22;1984;48.312;9.244;2023-01-01T17:56:16;10.60;99.90
3940;DHT22;1984;48.312;9.244;2023-01-01T17:58:43;10.60;99.90
3940;DHT22;1984;48.312;9.244;2023-01-01T18:03:38;10.50;99.90
3940;DHT22;1984;48.312;9.244;2023-01-01T18:06:05;10.40;99.90
3940;DHT22;1984;48.312;9.244;2023-01-01T18:08:30;10.40;99.90
3940;DHT22;1984;48.312;9.244;2023-01-01T18:10:57;10.30;99.90
3940;DHT22;1984;48.312;9.244;2023-01-01T18:13:23;10.20;99.90
3940;DHT22;1984;48.312;9.244;2023-01-01T18:15:49;10.20;99.90
3940;DHT22;1984;48.312;9.244;2023-01-01T18:18:15;10.10;99.90
3940;DHT22;1984;48.312;9.244;2023-01-01T18:20:40;10.10;99.90
3940;DHT22;1984;48.312;9.244;2023-01-01T18:23:06;10.00;99.90